METAR Data
IDs: Format: Raw Decoded Include TAF

Data at: 0137 UTC 01 Mar 2021

USCC 010130Z 33003MPS 6000 -SHSN SCT008 BKN033CB M18/M20 Q1010 R27/490537 NOSIG RMK QFE738